Time;durP1;ratioP1;P1;durP2;ratioP2;P2;SDS_P1;SDS_P2;PMS_P1;PMS_P2;Temp;Humidity;BMP_temperature;BMP_pressure;BME280_temperature;BME280_humidity;BME280_pressure;Samples;Min_cycle;Max_cycle;Signal;HPM_P1;HPM_P2
2023/09/22 00:00:58;;;;;;;6.65;3.72;;;;;;;19.42;100.00;65020.34;5030516;28;20210;-54
2023/09/22 00:03:23;;;;;;;7.80;4.20;;;;;;;19.41;100.00;65021.81;5029382;28;20191;-58
2023/09/22 00:05:52;;;;;;;5.22;4.15;;;;;;;19.35;100.00;65012.63;5030573;28;20711;-55
2023/09/22 00:08:17;;;;;;;10.82;5.03;;;;;;;19.43;100.00;65023.47;5029746;28;20226;-57
2023/09/22 00:10:43;;;;;;;7.80;4.07;;;;;;;19.35;100.00;65012.63;5030550;28;20266;-55
2023/09/22 00:13:08;;;;;;;6.65;4.20;;;;;;;19.58;100.00;65040.03;5030377;28;20719;-58
2023/09/22 00:15:34;;;;;;;7.55;4.30;;;;;;;19.41;100.00;65019.25;5030402;28;20265;-52
2023/09/22 00:18:00;;;;;;;8.43;4.18;;;;;;;19.57;100.00;65034.38;5029023;28;20206;-53
2023/09/22 00:20:25;;;;;;;5.20;4.13;;;;;;;19.57;100.00;65036.94;5030739;28;20198;-53
2023/09/22 00:22:52;;;;;;;4.38;3.83;;;;;;;19.45;100.00;65023.13;5045755;28;20735;-54
2023/09/22 00:25:18;;;;;;;6.30;4.28;;;;;;;19.24;100.00;65000.47;5030328;28;20230;-55
2023/09/22 00:27:44;;;;;;;5.55;3.92;;;;;;;19.20;100.00;64996.03;5030438;28;20765;-57
2023/09/22 00:30:10;;;;;;;7.05;4.00;;;;;;;19.37;100.00;65012.28;5012587;28;20263;-54
2023/09/22 00:32:36;;;;;;;8.93;4.55;;;;;;;19.28;100.00;65004.88;5030160;28;20296;-53
2023/09/22 00:35:03;;;;;;;5.38;4.32;;;;;;;19.31;100.00;65007.63;5030402;28;20208;-53
2023/09/22 00:37:29;;;;;;;10.82;3.42;;;;;;;19.41;100.00;65019.25;5028852;28;20305;-54
2023/09/22 00:39:56;;;;;;;7.05;3.83;;;;;;;19.33;100.00;65009.84;5030288;28;20225;-53
2023/09/22 00:42:21;;;;;;;5.90;4.00;;;;;;;19.02;100.00;64976.75;5030512;28;20306;-54
2023/09/22 00:44:47;;;;;;;8.90;4.47;;;;;;;19.22;100.00;65001.38;5030255;28;20284;-53
2023/09/22 00:47:14;;;;;;;5.47;4.35;;;;;;;19.09;100.00;64983.91;5030450;28;20321;-54
2023/09/22 00:49:45;;;;;;;9.23;5.32;;;;;;;18.94;100.00;64969.91;5030233;28;20212;-57
2023/09/22 00:52:13;;;;;;;8.40;4.65;;;;;;;18.70;100.00;64941.44;5030290;28;20344;-53
2023/09/22 00:54:40;;;;;;;6.28;4.55;;;;;;;18.65;100.00;64935.91;5030071;28;20194;-54
2023/09/22 00:57:06;;;;;;;7.53;4.78;;;;;;;19.03;100.00;64974.72;5029417;28;20225;-54
2023/09/22 00:59:33;;;;;;;7.47;4.25;;;;;;;18.80;100.00;64954.47;5030120;28;20205;-53
2023/09/22 01:02:00;;;;;;;9.80;4.50;;;;;;;18.59;100.00;64929.28;5030276;28;20293;-53
2023/09/22 01:04:26;;;;;;;7.53;4.13;;;;;;;18.63;100.00;64933.13;5030078;28;20233;-54
2023/09/22 01:06:52;;;;;;;4.45;3.83;;;;;;;18.44;100.00;64910.19;5029820;28;20700;-54
2023/09/22 01:09:18;;;;;;;9.93;4.50;;;;;;;18.40;100.00;64908.31;5030066;28;20273;-54
2023/09/22 01:11:44;;;;;;;9.00;4.75;;;;;;;18.68;100.00;64941.22;5030098;28;20297;-55
2023/09/22 01:14:10;;;;;;;6.38;4.22;;;;;;;18.67;100.00;64937.56;5029251;28;20246;-53
2023/09/22 01:16:37;;;;;;;8.73;4.72;;;;;;;18.51;100.00;64922.44;5029900;28;20597;-54
2023/09/22 01:19:14;;;;;;;11.07;5.00;;;;;;;18.27;100.00;64897.06;5032275;28;20213;-53
2023/09/22 01:21:40;;;;;;;10.32;5.30;;;;;;;18.23;100.00;64887.00;5033216;28;20209;-54
2023/09/22 01:24:07;;;;;;;6.95;4.75;;;;;;;18.65;100.00;64933.34;5033268;28;20380;-54
2023/09/22 01:26:32;;;;;;;13.63;5.00;;;;;;;18.77;100.00;64946.03;5033536;28;20254;-53
2023/09/22 01:28:58;;;;;;;9.40;5.00;;;;;;;18.76;100.00;64947.50;5033278;28;20225;-55
2023/09/22 01:31:23;;;;;;;6.25;4.78;;;;;;;18.61;100.00;64931.50;5033344;28;20214;-53
2023/09/22 01:33:49;;;;;;;9.43;4.82;;;;;;;18.61;100.00;64930.94;5033225;28;20236;-53
2023/09/22 01:36:15;;;;;;;10.85;5.78;;;;;;;18.35;100.00;64902.78;5033198;28;20551;-54
2023/09/22 01:38:41;;;;;;;9.73;4.65;;;;;;;18.24;100.00;64893.22;5032937;28;20616;-54
2023/09/22 01:41:07;;;;;;;6.90;5.30;;;;;;;18.35;100.00;64903.34;5032958;28;20197;-53
2023/09/22 01:43:35;;;;;;;9.80;5.40;;;;;;;18.52;100.00;64921.56;5031627;28;20201;-53
2023/09/22 01:46:00;;;;;;;10.52;4.68;;;;;;;18.51;100.00;64923.00;5032755;28;20209;-53
2023/09/22 01:48:26;;;;;;;7.55;4.78;;;;;;;18.42;100.00;64910.53;5033013;28;20202;-53
2023/09/22 01:50:51;;;;;;;4.65;4.15;;;;;;;18.36;100.00;64903.91;5033023;28;20685;-53
2023/09/22 01:53:17;;;;;;;9.27;4.93;;;;;;;18.37;100.00;64905.56;5032711;28;20578;-54
2023/09/22 01:55:42;;;;;;;7.65;4.22;;;;;;;18.31;100.00;64896.38;5032780;28;20203;-52
2023/09/22 01:58:09;;;;;;;9.73;5.43;;;;;;;18.39;100.00;64907.19;5032488;28;20371;-53
2023/09/22 02:00:35;;;;;;;7.60;4.95;;;;;;;18.57;100.00;64926.53;5032542;28;20202;-53
2023/09/22 02:03:01;;;;;;;9.18;4.80;;;;;;;18.66;100.00;64941.56;5032628;28;20204;-53
2023/09/22 02:05:27;;;;;;;8.88;4.70;;;;;;;18.47;100.00;64912.94;5032635;28;20194;-54
2023/09/22 02:07:52;;;;;;;8.30;4.38;;;;;;;18.33;100.00;64898.59;5032469;28;20609;-57
2023/09/22 02:10:18;;;;;;;11.60;5.03;;;;;;;18.28;100.00;64895.09;5032500;28;20202;-54
2023/09/22 02:12:45;;;;;;;8.75;5.22;;;;;;;18.11;100.00;64876.31;5032751;28;20289;-54
2023/09/22 02:15:11;;;;;;;8.98;5.32;;;;;;;18.05;100.00;64872.25;5032744;28;20198;-54
2023/09/22 02:17:38;;;;;;;7.00;4.97;;;;;;;18.36;100.00;64901.88;5032724;28;20296;-52
2023/09/22 02:20:09;;;;;;;13.57;4.85;;;;;;;18.41;100.00;64909.41;5031249;28;20289;-53
2023/09/22 02:22:35;;;;;;;14.55;5.85;;;;;;;18.37;100.00;64908.09;5032710;28;20313;-54
2023/09/22 02:25:02;;;;;;;10.73;5.15;;;;;;;18.34;100.00;64904.78;5032235;28;20278;-53
2023/09/22 02:27:27;;;;;;;8.02;4.82;;;;;;;18.22;100.00;64891.56;5032113;28;20309;-52
2023/09/22 02:29:53;;;;;;;6.80;4.88;;;;;;;17.96;100.00;64860.34;5031580;28;20695;-53
2023/09/22 02:32:18;;;;;;;9.10;5.28;;;;;;;18.29;100.00;64893.63;5032391;28;20615;-53
2023/09/22 02:34:44;;;;;;;9.25;4.80;;;;;;;18.21;100.00;64887.91;5030897;28;20671;-53
2023/09/22 02:37:09;;;;;;;7.53;4.93;;;;;;;18.37;100.00;64905.00;5032554;28;20784;-52
2023/09/22 02:39:35;;;;;;;13.48;5.80;;;;;;;18.38;100.00;64909.19;5031921;28;20217;-53
2023/09/22 02:42:01;;;;;;;9.57;5.93;;;;;;;18.12;100.00;64875.41;5032473;28;20230;-53
2023/09/22 02:44:29;;;;;;;9.70;7.13;;;;;;;17.89;100.00;64852.06;5032138;28;20201;-54
2023/09/22 02:46:54;;;;;;;11.77;7.30;;;;;;;17.78;100.00;64839.94;5031817;28;20218;-53
2023/09/22 02:49:20;;;;;;;8.77;6.70;;;;;;;17.58;100.00;64819.00;5032069;28;20558;-53
2023/09/22 02:51:46;;;;;;;10.98;6.78;;;;;;;17.44;100.00;64803.56;5031863;28;20249;-54
2023/09/22 02:54:11;;;;;;;9.45;6.55;;;;;;;17.49;100.00;64811.09;5031987;28;20572;-53
2023/09/22 02:56:37;;;;;;;12.90;6.78;;;;;;;17.61;100.00;64819.75;5031931;28;20285;-56
2023/09/22 02:59:04;;;;;;;9.55;6.97;;;;;;;18.00;100.00;64864.75;5031906;28;20193;-53
2023/09/22 03:01:29;;;;;;;11.13;6.80;;;;;;;17.92;100.00;64855.91;5031965;28;20291;-53
2023/09/22 03:03:55;;;;;;;8.73;6.47;;;;;;;17.98;100.00;64862.53;5030500;28;20297;-54
2023/09/22 03:06:20;;;;;;;11.35;6.32;;;;;;;17.92;100.00;64855.38;5030072;28;20264;-52
2023/09/22 03:08:45;;;;;;;8.73;6.70;;;;;;;18.09;100.00;64874.69;5031666;28;20213;-54
2023/09/22 03:11:11;;;;;;;9.18;6.78;;;;;;;18.06;100.00;64870.81;5031713;28;20195;-53
2023/09/22 03:13:37;;;;;;;9.57;5.30;;;;;;;18.04;100.00;64869.16;5031561;28;20205;-53
2023/09/22 03:16:03;;;;;;;8.77;6.50;;;;;;;18.17;100.00;64882.94;5031775;28;20261;-53
2023/09/22 03:18:30;;;;;;;9.13;5.78;;;;;;;17.94;100.00;64857.56;5031798;28;20206;-53
2023/09/22 03:20:56;;;;;;;9.73;6.25;;;;;;;17.92;100.00;64855.91;5031320;28;20676;-53
2023/09/22 03:23:23;;;;;;;8.02;5.60;;;;;;;18.01;100.00;64865.84;5031515;28;20283;-54
2023/09/22 03:25:50;;;;;;;7.95;5.93;;;;;;;18.02;100.00;64866.94;5031111;28;20657;-53
2023/09/22 03:28:16;;;;;;;14.93;5.38;;;;;;;18.05;100.00;64870.25;5029798;28;20217;-53
2023/09/22 03:30:41;;;;;;;16.65;5.55;;;;;;;17.93;100.00;64854.47;5031172;28;20194;-53
2023/09/22 03:33:07;;;;;;;11.27;5.72;;;;;;;17.93;100.00;64859.03;5031197;28;20697;-53
2023/09/22 03:35:36;;;;;;;8.15;5.10;;;;;;;17.94;100.00;64855.56;5031121;28;20265;-54
2023/09/22 03:38:03;;;;;;;5.88;4.45;;;;;;;17.81;100.00;64843.81;5030930;28;20221;-52
2023/09/22 03:40:33;;;;;;;12.73;6.00;;;;;;;17.88;100.00;64851.50;5031113;28;20250;-54
2023/09/22 03:43:01;;;;;;;5.68;4.18;;;;;;;17.89;100.00;64854.63;5029855;28;20264;-53
2023/09/22 03:45:26;;;;;;;8.82;4.32;;;;;;;17.98;100.00;64860.00;5031292;28;20211;-53
2023/09/22 03:47:53;;;;;;;7.82;4.28;;;;;;;17.89;100.00;64854.63;5029412;28;20592;-55
2023/09/22 03:50:19;;;;;;;9.52;4.93;;;;;;;17.85;100.00;64850.75;5031225;28;20214;-53
2023/09/22 03:52:45;;;;;;;6.88;4.35;;;;;;;17.93;100.00;64853.94;5031092;28;20210;-53
2023/09/22 03:55:12;;;;;;;6.55;4.00;;;;;;;17.99;100.00;64866.19;5030935;28;20194;-54
2023/09/22 03:57:38;;;;;;;8.48;4.70;;;;;;;18.03;100.00;64864.94;5030936;28;20222;-53
2023/09/22 04:00:07;;;;;;;7.45;4.65;;;;;;;17.95;100.00;64859.25;5031123;28;20198;-53
2023/09/22 04:02:32;;;;;;;9.15;4.90;;;;;;;17.92;100.00;64855.91;5030786;28;20213;-54
2023/09/22 04:04:58;;;;;;;10.45;4.30;;;;;;;17.95;100.00;64858.69;5030667;28;20182;-53
2023/09/22 04:07:24;;;;;;;7.20;4.38;;;;;;;17.92;100.00;64855.91;5030813;28;20222;-53
2023/09/22 04:09:50;;;;;;;7.45;4.00;;;;;;;17.82;100.00;64844.34;5030952;28;20244;-54
2023/09/22 04:12:16;;;;;;;6.88;4.40;;;;;;;17.99;100.00;64861.09;5030899;28;20213;-53
2023/09/22 04:14:42;;;;;;;9.00;4.47;;;;;;;17.95;100.00;64859.25;5029316;28;20217;-57
2023/09/22 04:17:08;;;;;;;8.90;4.28;;;;;;;17.89;100.00;64852.63;5030644;28;20218;-53
2023/09/22 04:19:34;;;;;;;6.90;4.18;;;;;;;18.00;100.00;64864.75;5030538;28;20209;-54
2023/09/22 04:22:00;;;;;;;8.50;4.15;;;;;;;17.98;100.00;64862.53;5030494;28;20325;-55
2023/09/22 04:24:32;;;;;;;10.38;4.40;;;;;;;17.96;100.00;64859.78;5029159;28;20693;-54
2023/09/22 04:27:02;;;;;;;11.05;4.30;;;;;;;17.92;100.00;64853.38;5030706;28;20230;-53
2023/09/22 04:29:27;;;;;;;7.60;4.53;;;;;;;17.85;100.00;64847.66;5030448;28;20240;-54
2023/09/22 04:31:53;;;;;;;7.70;3.50;;;;;;;17.93;100.00;64857.03;5030425;28;20292;-53
2023/09/22 04:34:27;;;;;;;7.63;4.45;;;;;;;17.92;100.00;64855.38;5030244;28;20194;-53
2023/09/22 04:36:53;;;;;;;8.45;4.32;;;;;;;17.92;100.00;64855.91;5030417;28;20783;-55
2023/09/22 04:39:21;;;;;;;10.13;4.53;;;;;;;17.96;100.00;64859.78;5030316;28;20281;-52
2023/09/22 04:41:47;;;;;;;8.50;3.90;;;;;;;17.92;100.00;64858.47;5030136;28;20213;-54
2023/09/22 04:44:13;;;;;;;6.68;4.38;;;;;;;17.93;100.00;64857.03;5030455;28;20195;-54
2023/09/22 04:46:39;;;;;;;7.68;4.50;;;;;;;17.95;100.00;64861.22;5045202;28;20229;-57
2023/09/22 04:49:06;;;;;;;7.00;4.38;;;;;;;18.14;100.00;64880.19;5029033;28;20277;-53
2023/09/22 04:51:31;;;;;;;9.98;4.55;;;;;;;18.02;100.00;64869.50;5030394;28;20245;-54
2023/09/22 04:53:57;;;;;;;8.32;4.18;;;;;;;17.86;100.00;64851.31;5032240;28;20651;-53
2023/09/22 04:56:22;;;;;;;9.10;4.00;;;;;;;18.37;100.00;64902.44;5033764;28;20336;-54
2023/09/22 04:58:48;;;;;;;8.45;4.50;;;;;;;18.29;100.00;64896.72;5033800;28;20699;-53
2023/09/22 05:01:14;;;;;;;9.75;4.15;;;;;;;18.49;100.00;64920.25;5033405;28;20698;-53
2023/09/22 05:03:40;;;;;;;10.70;4.70;;;;;;;18.44;100.00;64912.75;5033838;28;20201;-53
2023/09/22 05:06:09;;;;;;;9.77;4.82;;;;;;;18.48;100.00;64916.59;5033377;28;20650;-53
2023/09/22 05:08:38;;;;;;;14.15;5.00;;;;;;;18.25;100.00;64894.88;5033684;28;20273;-53
2023/09/22 05:11:06;;;;;;;11.00;4.53;;;;;;;18.29;100.00;64898.72;5033416;28;20235;-53
2023/09/22 05:13:40;;;;;;;8.77;4.40;;;;;;;18.52;100.00;64921.00;5032099;28;20198;-53
2023/09/22 05:16:09;;;;;;;11.57;4.95;;;;;;;18.51;100.00;64923.00;5033429;28;20292;-53
2023/09/22 05:18:36;;;;;;;5.47;4.45;;;;;;;18.36;100.00;64904.44;5033242;28;20226;-54
2023/09/22 05:21:02;;;;;;;5.95;4.50;;;;;;;18.58;100.00;64925.63;5033286;28;20745;-54
2023/09/22 05:23:29;;;;;;;12.73;5.10;;;;;;;18.40;100.00;64908.31;5033268;28;20680;-54
2023/09/22 05:25:56;;;;;;;9.88;4.80;;;;;;;18.33;100.00;64901.13;5033132;28;20210;-56
2023/09/22 05:28:21;;;;;;;10.10;4.80;;;;;;;18.48;100.00;64914.06;5048150;28;20197;-54
2023/09/22 05:30:47;;;;;;;8.93;4.60;;;;;;;18.46;100.00;64914.41;5033157;28;20230;-53
2023/09/22 05:33:13;;;;;;;8.90;4.65;;;;;;;18.57;100.00;64929.06;5032995;28;20709;-53
2023/09/22 05:35:38;;;;;;;8.90;4.88;;;;;;;18.59;100.00;64928.72;5031646;28;20703;-60
2023/09/22 05:38:04;;;;;;;9.98;5.07;;;;;;;18.72;100.00;64943.63;5033106;28;20233;-53
2023/09/22 05:40:34;;;;;;;11.38;5.72;;;;;;;18.65;100.00;64938.44;5032724;28;20273;-54
2023/09/22 05:43:07;;;;;;;10.05;4.85;;;;;;;18.76;100.00;64945.50;5032927;28;20214;-54
2023/09/22 05:45:32;;;;;;;12.07;5.03;;;;;;;18.85;100.00;64957.41;5032949;28;20285;-53
2023/09/22 05:47:58;;;;;;;12.75;5.28;;;;;;;18.97;100.00;64968.66;5032739;28;20658;-53
2023/09/22 05:50:23;;;;;;;14.38;5.72;;;;;;;19.03;100.00;64977.28;5032906;28;20201;-56
2023/09/22 05:52:50;;;;;;;11.65;5.68;;;;;;;18.62;100.00;64932.03;5032623;28;20771;-53
2023/09/22 05:55:18;;;;;;;9.52;6.35;;;;;;;18.58;100.00;64930.19;5031183;28;20291;-54
2023/09/22 05:57:43;;;;;;;10.30;5.40;;;;;;;18.77;100.00;64948.59;5032989;28;20202;-54
2023/09/22 06:00:19;;;;;;;14.63;6.15;;;;;;;18.75;100.00;64943.81;5032703;28;20576;-53
2023/09/22 06:02:49;;;;;;;17.60;6.70;;;;;;;18.58;100.00;64925.09;5032398;28;20214;-54
2023/09/22 06:05:18;;;;;;;14.68;9.80;;;;;;;18.57;100.00;64926.53;5031480;28;20672;-53
2023/09/22 06:07:43;;;;;;;17.95;10.13;;;;;;;18.58;100.00;64925.09;5032207;28;20296;-54
2023/09/22 06:10:09;;;;;;;12.27;7.53;;;;;;;18.67;100.00;64938.09;5032296;28;20307;-54
2023/09/22 06:12:37;;;;;;;13.32;7.55;;;;;;;18.70;100.00;64940.88;5032124;28;20276;-55
2023/09/22 06:15:08;;;;;;;15.38;8.57;;;;;;;18.89;100.00;64959.81;5031217;28;20214;-54
2023/09/22 06:17:36;;;;;;;12.98;7.07;;;;;;;19.04;100.00;64976.38;5032033;28;20218;-53
2023/09/22 06:20:13;;;;;;;10.02;6.80;;;;;;;19.06;100.00;64983.72;5032146;28;20272;-54
2023/09/22 06:22:41;;;;;;;13.70;6.38;;;;;;;19.10;100.00;64985.00;5031354;28;20222;-54
2023/09/22 06:25:08;;;;;;;14.48;6.68;;;;;;;18.92;100.00;64963.16;5032417;28;20658;-54
2023/09/22 06:27:33;;;;;;;13.77;6.63;;;;;;;18.95;100.00;64969.00;5032168;28;20222;-54
2023/09/22 06:30:00;;;;;;;13.20;6.68;;;;;;;19.01;100.00;64977.63;5032187;28;20205;-54
2023/09/22 06:32:26;;;;;;;12.65;6.68;;;;;;;19.00;100.00;64973.97;5030770;28;20217;-57
2023/09/22 06:34:53;;;;;;;14.27;7.43;;;;;;;19.15;100.00;64993.63;5032264;28;20208;-54
2023/09/22 06:37:19;;;;;;;15.15;7.60;;;;;;;19.12;100.00;64987.22;5031976;28;20696;-54
2023/09/22 06:39:46;;;;;;;14.43;6.57;;;;;;;19.06;100.00;64980.59;5032006;28;20198;-54
2023/09/22 06:42:12;;;;;;;15.23;7.20;;;;;;;19.05;100.00;64980.03;5031906;28;20214;-53
2023/09/22 06:44:39;;;;;;;13.70;7.38;;;;;;;19.25;100.00;65002.09;5032031;28;20247;-54
2023/09/22 06:47:07;;;;;;;14.65;8.77;;;;;;;19.29;100.00;65003.41;5031963;28;20304;-54
2023/09/22 06:49:35;;;;;;;12.80;8.25;;;;;;;19.49;100.00;65028.09;5030774;28;20185;-54
2023/09/22 06:52:02;;;;;;;10.63;6.68;;;;;;;19.38;100.00;65015.94;5030732;28;20284;-55
2023/09/22 06:54:27;;;;;;;14.73;7.38;;;;;;;19.56;100.00;65035.81;5030478;28;20264;-53
2023/09/22 06:56:54;;;;;;;13.63;6.80;;;;;;;19.75;100.00;65056.81;5030206;28;20221;-56
2023/09/22 06:59:22;;;;;;;11.93;6.40;;;;;;;20.00;100.00;65086.41;5031886;28;20668;-58
2023/09/22 07:01:48;;;;;;;12.32;6.88;;;;;;;20.33;100.00;65117.22;5031493;28;20217;-58
2023/09/22 07:04:14;;;;;;;15.88;6.20;;;;;;;20.32;100.00;65119.22;5030446;28;20198;-53
2023/09/22 07:06:40;;;;;;;9.88;6.22;;;;;;;20.49;100.00;65135.44;5031589;28;20217;-53
2023/09/22 07:09:09;;;;;;;17.23;6.15;;;;;;;20.82;100.00;65171.38;5030626;28;20217;-57
2023/09/22 07:11:40;;;;;;;10.63;5.20;;;;;;;20.86;100.00;65175.78;5031347;28;20675;-55
2023/09/22 07:14:10;;;;;;;11.30;5.90;;;;;;;21.08;100.00;65200.13;5029873;28;20330;-54
2023/09/22 07:16:37;;;;;;;12.95;6.40;;;;;;;20.85;100.00;65177.25;5028560;28;20272;-54
2023/09/22 07:19:03;;;;;;;9.75;6.35;;;;;;;20.93;100.00;65183.53;5045427;28;20549;-57
2023/09/22 07:21:29;;;;;;;14.07;5.57;;;;;;;21.16;100.00;65206.41;5030475;28;20275;-55
2023/09/22 07:23:56;;;;;;;9.00;5.78;;;;;;;21.34;100.00;65234.03;5022212;28;20210;-54
2023/09/22 07:26:26;;;;;;;14.27;6.20;;;;;;;21.45;100.00;65241.03;5013586;28;20221;-53
2023/09/22 07:28:52;;;;;;;10.68;5.18;;;;;;;21.59;100.00;65251.41;5029365;28;20194;-53
2023/09/22 07:31:18;;;;;;;15.07;5.40;;;;;;;21.55;100.00;65254.13;5027493;28;20214;-55
2023/09/22 07:33:44;;;;;;;9.25;4.60;;;;;;;21.50;100.00;65246.59;5028859;28;20267;-53
2023/09/22 07:36:10;;;;;;;17.63;5.28;;;;;;;21.42;100.00;65237.19;5029640;28;20356;-54
2023/09/22 07:38:36;;;;;;;11.93;5.78;;;;;;;21.49;100.00;65248.03;5029643;28;20640;-53
2023/09/22 07:41:02;;;;;;;10.82;4.65;;;;;;;21.56;100.00;65253.22;5030799;28;20220;-54
2023/09/22 07:43:29;;;;;;;8.27;4.47;;;;;;;21.63;100.00;65260.94;5031024;28;20189;-54
2023/09/22 07:46:00;;;;;;;9.68;4.45;;;;;;;21.69;100.00;65269.63;5030080;28;20206;-54
2023/09/22 07:48:27;;;;;;;15.18;4.78;;;;;;;21.75;100.00;65273.69;5030707;28;20216;-54
2023/09/22 07:50:52;;;;;;;11.85;5.47;;;;;;;21.69;100.00;65267.06;5030785;28;20684;-53
2023/09/22 07:53:19;;;;;;;10.57;4.75;;;;;;;22.08;99.25;65309.69;5028606;28;20213;-55
2023/09/22 07:55:45;;;;;;;7.38;4.38;;;;;;;22.24;98.81;65329.94;5029816;28;20225;-54
2023/09/22 07:58:11;;;;;;;6.88;4.53;;;;;;;22.33;98.81;65337.34;5030009;28;20209;-54
2023/09/22 08:00:42;;;;;;;7.63;4.70;;;;;;;22.37;96.39;65344.34;5030813;28;20578;-53
2023/09/22 08:03:09;;;;;;;12.20;4.60;;;;;;;22.64;95.49;65371.69;5029635;28;20217;-54
2023/09/22 08:05:35;;;;;;;8.23;4.40;;;;;;;23.01;93.03;65412.66;5030759;28;20217;-53
2023/09/22 08:08:01;;;;;;;7.25;4.35;;;;;;;23.22;87.40;65435.38;5030783;28;20711;-53
2023/09/22 08:10:29;;;;;;;9.80;5.15;;;;;;;22.94;90.26;65402.34;5030682;28;20185;-54
2023/09/22 08:12:54;;;;;;;9.68;4.15;;;;;;;23.08;89.69;65420.41;5030822;28;20389;-54
2023/09/22 08:15:21;;;;;;;12.30;4.60;;;;;;;23.28;89.34;65442.56;5030749;28;20727;-54
2023/09/22 08:17:48;;;;;;;7.45;4.25;;;;;;;23.66;86.24;65481.00;5030711;28;20777;-54
2023/09/22 08:20:15;;;;;;;8.73;4.13;;;;;;;23.80;81.85;65499.66;5030581;28;20285;-54
2023/09/22 08:22:42;;;;;;;6.35;4.50;;;;;;;23.95;81.12;65516.28;5028906;28;20218;-53
2023/09/22 08:25:09;;;;;;;9.10;4.55;;;;;;;24.13;82.01;65535.72;5030448;28;20202;-53
2023/09/22 08:27:37;;;;;;;10.50;4.40;;;;;;;24.17;80.90;65537.56;5029815;28;20276;-53
2023/09/22 08:30:11;;;;;;;10.65;5.55;;;;;;;24.45;79.67;65571.19;5030431;28;20202;-54
2023/09/22 08:32:41;;;;;;;12.07;5.05;;;;;;;24.63;81.17;65593.72;5030433;28;20210;-54
2023/09/22 08:35:14;;;;;;;8.80;4.65;;;;;;;24.89;82.16;65619.47;5030295;28;20206;-54
2023/09/22 08:37:42;;;;;;;12.13;5.15;;;;;;;25.12;76.86;65641.84;5030810;28;20225;-55
2023/09/22 08:40:11;;;;;;;10.60;4.50;;;;;;;25.34;79.52;65668.84;5030207;28;20584;-54
2023/09/22 08:42:37;;;;;;;7.45;4.72;;;;;;;25.39;75.07;65671.81;5030344;28;20317;-54
2023/09/22 08:45:08;;;;;;;11.13;4.97;;;;;;;25.66;73.70;65701.78;5030497;28;20197;-54
2023/09/22 08:47:39;;;;;;;13.80;4.88;;;;;;;25.35;76.00;65670.50;5030136;28;20218;-54
2023/09/22 08:50:14;;;;;;;10.82;4.82;;;;;;;25.81;72.88;65718.47;5030387;28;20297;-54
2023/09/22 08:52:41;;;;;;;11.88;4.90;;;;;;;26.37;71.26;65780.69;5028758;28;20213;-55
2023/09/22 08:55:12;;;;;;;8.90;5.00;;;;;;;26.53;70.46;65798.44;5030082;28;20285;-54
2023/09/22 08:57:49;;;;;;;10.02;4.63;;;;;;;26.79;71.78;65829.38;5030411;28;20253;-53
2023/09/22 09:00:20;;;;;;;15.23;5.55;;;;;;;27.09;69.50;65862.19;5028877;28;20240;-58
2023/09/22 09:02:51;;;;;;;10.13;4.88;;;;;;;27.10;66.71;65863.84;5030085;28;20225;-54
2023/09/22 09:05:30;;;;;;;15.77;6.43;;;;;;;27.47;67.01;65899.28;5030270;28;20216;-54
2023/09/22 09:08:22;;;;;;;12.10;5.60;;;;;;;27.59;67.14;65915.22;5028573;28;20257;-54
2023/09/22 09:10:49;;;;;;;13.20;5.35;;;;;;;27.71;62.49;65928.56;5030098;28;20236;-54
2023/09/22 09:13:23;;;;;;;12.00;5.63;;;;;;;27.70;60.99;65930.03;5012099;28;20212;-53
2023/09/22 09:15:53;;;;;;;10.60;4.88;;;;;;;27.51;61.64;65905.75;5029964;28;20177;-54
2023/09/22 09:18:23;;;;;;;9.73;4.78;;;;;;;27.82;61.65;65940.78;5028706;28;20216;-54
2023/09/22 09:21:16;;;;;;;8.63;5.03;;;;;;;28.06;59.50;65967.50;5029844;28;20200;-53
2023/09/22 09:23:56;;;;;;;9.35;5.68;;;;;;;28.30;59.50;65993.09;5028364;28;20206;-60
2023/09/22 09:26:28;;;;;;;8.52;4.78;;;;;;;28.11;59.99;65973.06;5029855;28;20206;-53
2023/09/22 09:28:54;;;;;;;12.25;5.85;;;;;;;28.59;61.30;66025.94;5029559;28;20716;-54
2023/09/22 09:31:41;;;;;;;12.43;5.65;;;;;;;29.06;60.50;66080.28;5028376;28;20210;-54
2023/09/22 09:34:09;;;;;;;11.60;6.13;;;;;;;29.35;58.23;66112.59;5027918;28;20217;-54
2023/09/22 09:36:34;;;;;;;11.32;5.97;;;;;;;29.62;56.83;66137.47;5027977;28;20218;-54
2023/09/22 09:39:00;;;;;;;11.20;5.35;;;;;;;29.59;56.14;66136.19;5030173;28;20276;-54
2023/09/22 09:41:27;;;;;;;10.73;5.40;;;;;;;29.67;56.24;66145.66;5032993;28;20308;-54
2023/09/22 09:43:55;;;;;;;12.55;4.72;;;;;;;29.26;55.73;66099.44;5032974;28;20209;-54
2023/09/22 09:46:21;;;;;;;9.20;4.95;;;;;;;29.55;56.06;66132.28;5032996;28;20222;-52
2023/09/22 09:48:52;;;;;;;9.60;4.75;;;;;;;29.24;57.18;66097.19;5032719;28;20259;-55
2023/09/22 09:51:20;;;;;;;10.73;5.13;;;;;;;28.74;57.78;66042.06;5032774;28;20688;-54
2023/09/22 09:53:46;;;;;;;10.63;4.80;;;;;;;28.86;57.46;66058.03;5032690;28;20210;-54
2023/09/22 09:56:17;;;;;;;9.52;5.07;;;;;;;29.10;58.59;66084.19;5032590;28;20590;-54
2023/09/22 09:58:45;;;;;;;15.18;5.18;;;;;;;29.23;58.32;66093.50;5032803;28;20859;-58
2023/09/22 10:01:12;;;;;;;11.15;4.80;;;;;;;29.18;57.20;66093.69;5032430;28;20214;-53
2023/09/22 10:03:42;;;;;;;14.10;4.90;;;;;;;29.70;57.39;66145.84;5032720;28;20209;-53
2023/09/22 10:06:13;;;;;;;9.73;4.65;;;;;;;29.81;58.66;66161.28;5031203;28;20202;-53
2023/09/22 10:08:39;;;;;;;13.18;5.05;;;;;;;30.02;54.92;66183.56;5032381;28;20233;-53
2023/09/22 10:11:07;;;;;;;11.10;4.72;;;;;;;30.20;56.07;66204.16;5032199;28;20336;-53
2023/09/22 10:13:36;;;;;;;12.20;5.38;;;;;;;30.48;53.50;66234.84;5032456;28;20279;-54
2023/09/22 10:16:04;;;;;;;13.93;5.28;;;;;;;30.37;50.95;66220.53;5032484;28;20202;-54
2023/09/22 10:18:52;;;;;;;11.02;4.63;;;;;;;30.38;51.83;66223.72;5031067;28;20202;-53
2023/09/22 10:21:45;;;;;;;10.45;4.72;;;;;;;30.52;51.58;66236.72;5030777;28;20586;-54
2023/09/22 10:24:23;;;;;;;8.93;4.88;;;;;;;30.62;52.33;66247.84;5032224;28;20221;-54
2023/09/22 10:26:55;;;;;;;11.20;4.28;;;;;;;30.65;53.70;66253.78;5032080;28;20218;-55
2023/09/22 10:29:33;;;;;;;7.40;4.65;;;;;;;30.79;52.13;66266.22;5032248;28;20224;-53
2023/09/22 10:35:09;;;;;;;10.63;4.60;;;;;;;29.86;54.63;66165.75;5032063;28;20308;-56
2023/09/22 10:37:38;;;;;;;8.85;5.15;;;;;;;29.90;53.48;66167.59;5030777;28;20221;-59
2023/09/22 10:40:11;;;;;;;11.88;5.20;;;;;;;30.19;52.36;66205.09;5030728;28;20206;-54
2023/09/22 10:42:46;;;;;;;11.52;4.90;;;;;;;30.93;51.90;66282.44;5031928;28;20220;-57
2023/09/22 10:45:13;;;;;;;10.48;5.13;;;;;;;31.45;48.40;66339.91;5031950;28;20264;-53
2023/09/22 10:47:39;;;;;;;13.88;5.28;;;;;;;31.62;46.67;66358.84;5031732;28;20697;-53
2023/09/22 10:50:18;;;;;;;12.77;5.28;;;;;;;31.26;45.86;66321.84;5031857;28;20229;-53
2023/09/22 10:52:54;;;;;;;11.98;4.90;;;;;;;30.91;46.51;66284.88;5031416;28;20316;-52
2023/09/22 10:55:27;;;;;;;11.15;4.97;;;;;;;31.24;47.42;66317.00;5031437;28;20212;-53
2023/09/22 10:57:56;;;;;;;11.77;4.40;;;;;;;31.48;47.58;66342.66;5032025;28;20214;-53
2023/09/22 11:00:25;;;;;;;11.65;5.20;;;;;;;31.02;48.02;66291.91;5031695;28;20209;-54
2023/09/22 11:02:52;;;;;;;8.65;4.55;;;;;;;31.66;47.87;66363.31;5030418;28;20206;-54
2023/09/22 11:05:18;;;;;;;15.85;5.43;;;;;;;32.02;49.48;66402.94;5031534;28;20530;-54
2023/09/22 11:07:44;;;;;;;15.98;5.20;;;;;;;32.41;44.50;66448.53;5031360;28;20256;-54
2023/09/22 11:10:21;;;;;;;15.80;5.25;;;;;;;32.46;44.09;66454.72;5030070;28;20205;-53
2023/09/22 11:12:54;;;;;;;13.63;4.97;;;;;;;32.55;45.06;66464.19;5031804;28;20210;-53
2023/09/22 11:15:21;;;;;;;14.38;5.00;;;;;;;32.13;45.19;66415.78;5031968;28;20288;-55
2023/09/22 11:17:47;;;;;;;14.00;5.20;;;;;;;32.30;43.41;66436.84;5030250;28;20283;-54
2023/09/22 11:20:18;;;;;;;14.10;4.88;;;;;;;32.11;43.68;66415.63;5031431;28;20197;-53
2023/09/22 11:22:46;;;;;;;11.68;4.90;;;;;;;32.28;44.87;66432.53;5031116;28;20210;-54
2023/09/22 11:25:11;;;;;;;12.05;4.90;;;;;;;32.99;43.56;66511.31;5030064;28;20764;-54
2023/09/22 11:27:47;;;;;;;13.85;4.68;;;;;;;33.27;42.61;66542.00;5031295;28;20293;-54
2023/09/22 11:30:19;;;;;;;10.63;4.75;;;;;;;32.88;42.54;66501.63;5031467;28;20284;-54